This is the latest recevied weather packets stored in our database for station/object JQ3CCU-10. If no packets are shown the sender has not sent any weather packets the latest 10 day(s).
| Time | Temp. | Humidity | Pressure | Rain* | Wind** | Luminosity | Snow |
|---|---|---|---|---|---|---|---|
| 1777564455 | 17.22° C | 83% | - | - | 0 m/s | - | - |
| 1777562655 | 17.78° C | 74% | - | - | 0 m/s | - | - |
| 1777560855 | 17.78° C | 74% | - | - | 0 m/s | - | - |
| 1777559055 | 17.78° C | 69% | - | - | 0 m/s | - | - |
| 1777557255 | 17.78° C | 69% | - | - | 0 m/s | - | - |
| 1777555455 | 17.78° C | 79% | - | - | 0 m/s | - | - |
| 1777553655 | 17.78° C | 79% | - | - | 0 m/s | - | - |
| 1777551855 | 18.33° C | 68% | - | - | 0 m/s | - | - |
| 1777550055 | 18.33° C | 68% | - | - | 0 m/s | - | - |
| 1777548255 | 17.78° C | 76% | - | - | 0 m/s | - | - |
| 1777546455 | 17.78° C | 76% | - | - | 0 m/s | - | - |
| 1777544655 | 18.33° C | 67% | - | - | 0 m/s | - | - |
| 1777542855 | 18.33° C | 67% | - | - | 0 m/s | - | - |
| 1777541055 | 18.33° C | 68% | - | - | 0 m/s | - | - |
| 1777539255 | 18.33° C | 68% | - | - | 0 m/s | - | - |
| 1777537455 | 18.89° C | 63% | - | - | 0 m/s | - | - |
| 1777535655 | 18.89° C | 63% | - | - | 0 m/s | - | - |
| 1777533855 | 19.44° C | 67% | - | - | 0 m/s | - | - |
| 1777532055 | 19.44° C | 67% | - | - | 0 m/s | - | - |
| 1777530255 | 19.44° C | 62% | - | - | 0 m/s | - | - |
| 1777528455 | 19.44° C | 62% | - | - | 0 m/s | - | - |
| 1777526655 | 18.33° C | 65% | - | - | 0 m/s | - | - |
| 1777524855 | 18.33° C | 65% | - | - | 0 m/s | - | - |
| 1777523055 | 18.33° C | 65% | - | - | 0 m/s | - | - |
| 1777521255 | 18.33° C | 65% | - | - | 0 m/s | - | - |
* Rain since midnight (hover to see other rain measurements)
** Current wind speed in m/s (hover to see current wind gust speed)